Time;durP1;ratioP1;P1;durP2;ratioP2;P2;SDS_P1;SDS_P2;PMS_P1;PMS_P2;Temp;Humidity;BMP_temperature;BMP_pressure;BME280_temperature;BME280_humidity;BME280_pressure;Samples;Min_cycle;Max_cycle;Signal;HPM_P1;HPM_P2
2021/09/29 00:00:00;;;;;;;3.33;2.60;;;9.80;99.90;;;;;;5045530;28;20274;-68
2021/09/29 00:02:26;;;;;;;4.57;2.73;;;9.80;99.90;;;;;;5045522;28;20194;-68
2021/09/29 00:04:52;;;;;;;3.10;2.73;;;9.80;99.90;;;;;;5045417;28;20185;-68
2021/09/29 00:07:17;;;;;;;4.20;2.80;;;9.80;99.90;;;;;;5046218;28;20178;-66
2021/09/29 00:09:43;;;;;;;5.67;2.93;;;9.70;99.90;;;;;;5044037;28;20214;-67
2021/09/29 00:12:09;;;;;;;3.67;3.30;;;9.70;99.90;;;;;;5045519;28;20290;-69
2021/09/29 00:14:35;;;;;;;4.73;3.17;;;9.70;99.90;;;;;;5045671;28;20789;-67
2021/09/29 00:17:01;;;;;;;5.07;3.70;;;9.80;99.90;;;;;;5045810;28;20225;-67
2021/09/29 00:19:26;;;;;;;5.60;3.70;;;9.70;99.90;;;;;;5045210;28;20190;-67
2021/09/29 00:21:52;;;;;;;4.03;3.23;;;9.70;99.90;;;;;;5043573;28;20264;-67
2021/09/29 00:24:17;;;;;;;5.10;3.90;;;9.70;99.90;;;;;;5045211;28;20272;-68
2021/09/29 00:26:43;;;;;;;5.03;3.27;;;9.70;99.90;;;;;;5045683;28;20676;-66
2021/09/29 00:29:09;;;;;;;4.93;3.60;;;9.70;99.90;;;;;;5043873;28;20217;-67
2021/09/29 00:31:36;;;;;;;3.63;3.10;;;9.70;99.90;;;;;;5044481;28;20673;-67
2021/09/29 00:34:12;;;;;;;4.00;3.20;;;9.70;99.90;;;;;;5044974;28;20216;-69
2021/09/29 00:36:43;;;;;;;5.60;3.70;;;9.70;99.90;;;;;;5045529;28;20170;-68
2021/09/29 00:39:10;;;;;;;3.87;3.30;;;9.80;99.90;;;;;;5044761;28;20224;-65
2021/09/29 00:41:36;;;;;;;5.40;4.50;;;9.80;99.90;;;;;;5044407;28;20229;-65
2021/09/29 00:44:03;;;;;;;5.33;4.10;;;9.80;99.90;;;;;;5044801;28;20609;-67
2021/09/29 00:46:28;;;;;;;4.93;4.50;;;9.70;99.90;;;;;;5044040;28;20190;-69
2021/09/29 00:48:54;;;;;;;5.07;4.57;;;9.60;99.90;;;;;;5044588;28;20673;-66
2021/09/29 00:51:20;;;;;;;5.10;4.60;;;9.50;99.90;;;;;;5043389;28;20696;-67
2021/09/29 00:53:48;;;;;;;6.17;5.03;;;9.50;99.90;;;;;;5044200;28;20182;-69
2021/09/29 00:56:13;;;;;;;7.27;5.37;;;9.50;99.90;;;;;;5045197;28;20178;-68
2021/09/29 00:58:39;;;;;;;5.40;4.40;;;9.50;99.90;;;;;;5044069;28;20646;-66
2021/09/29 01:01:05;;;;;;;7.73;4.93;;;9.50;99.90;;;;;;5044591;28;20656;-66
2021/09/29 01:03:31;;;;;;;5.10;4.67;;;9.60;99.90;;;;;;5043801;28;20265;-66
2021/09/29 01:06:02;;;;;;;6.40;4.80;;;9.60;99.90;;;;;;5044507;28;20186;-65
2021/09/29 01:08:35;;;;;;;6.03;5.43;;;9.60;99.90;;;;;;5044069;28;20540;-67
2021/09/29 01:11:20;;;;;;;5.33;4.83;;;9.60;99.90;;;;;;5045096;28;20666;-65
2021/09/29 01:14:01;;;;;;;6.13;4.77;;;9.60;99.90;;;;;;5043752;28;20186;-67
2021/09/29 01:16:30;;;;;;;8.10;4.73;;;9.60;99.90;;;;;;5044546;28;20278;-68
2021/09/29 01:18:58;;;;;;;6.13;4.63;;;9.90;99.90;;;;;;5043597;28;20174;-66
2021/09/29 01:21:31;;;;;;;6.63;5.00;;;10.10;99.90;;;;;;5043703;28;20201;-70
2021/09/29 01:24:00;;;;;;;5.77;5.17;;;10.10;99.90;;;;;;5043843;28;20183;-69
2021/09/29 01:26:29;;;;;;;5.77;4.23;;;10.00;99.90;;;;;;5044057;28;20178;-67
2021/09/29 01:29:05;;;;;;;6.27;4.63;;;10.10;99.90;;;;;;5043811;28;20240;-68
2021/09/29 01:31:32;;;;;;;6.03;4.40;;;10.10;99.90;;;;;;5043564;28;20726;-70
2021/09/29 01:33:59;;;;;;;4.82;4.40;;;10.20;99.90;;;;;;5043958;28;20189;-68
2021/09/29 01:36:25;;;;;;;5.00;4.37;;;10.10;99.90;;;;;;5044277;28;20181;-66
2021/09/29 01:38:55;;;;;;;4.93;4.50;;;10.20;99.90;;;;;;5043967;28;20650;-65
2021/09/29 01:41:26;;;;;;;5.77;4.50;;;10.10;99.90;;;;;;5043898;28;20703;-68
2021/09/29 01:43:53;;;;;;;5.33;4.83;;;10.20;99.90;;;;;;5043822;28;20214;-66
2021/09/29 01:46:20;;;;;;;9.10;4.80;;;10.10;99.90;;;;;;5044540;28;20186;-68
2021/09/29 01:49:13;;;;;;;7.03;5.00;;;10.10;99.90;;;;;;5043599;28;20206;-68
2021/09/29 01:51:43;;;;;;;6.07;5.30;;;10.00;99.90;;;;;;5043210;28;20194;-67
2021/09/29 01:54:13;;;;;;;6.27;5.40;;;10.00;99.90;;;;;;5043970;28;20174;-66
2021/09/29 01:56:38;;;;;;;6.40;5.00;;;10.00;99.90;;;;;;5044330;28;20174;-67
2021/09/29 01:59:05;;;;;;;5.40;4.90;;;10.00;99.90;;;;;;5043304;28;20228;-67
2021/09/29 02:01:38;;;;;;;5.93;5.33;;;10.20;99.90;;;;;;5043791;28;20202;-67
2021/09/29 02:04:09;;;;;;;5.83;5.23;;;10.20;99.90;;;;;;5043412;28;20251;-69
2021/09/29 02:06:51;;;;;;;7.90;5.30;;;10.20;99.90;;;;;;5041847;28;20182;-69
2021/09/29 02:09:17;;;;;;;5.50;4.90;;;10.20;99.90;;;;;;5043385;28;20614;-67
2021/09/29 02:11:45;;;;;;;7.33;5.33;;;10.20;99.90;;;;;;5043208;28;20349;-69
2021/09/29 02:14:11;;;;;;;7.27;5.40;;;10.20;99.90;;;;;;5043584;28;20723;-68
2021/09/29 02:16:37;;;;;;;6.93;5.87;;;10.20;99.90;;;;;;5042582;28;20170;-67
2021/09/29 02:19:03;;;;;;;5.37;4.87;;;10.10;99.90;;;;;;5043387;28;20273;-67
2021/09/29 02:21:29;;;;;;;6.70;5.40;;;10.10;99.90;;;;;;5043225;28;20209;-69
2021/09/29 02:23:55;;;;;;;6.33;5.73;;;10.10;99.90;;;;;;5043168;28;20590;-68
2021/09/29 02:26:21;;;;;;;6.53;5.67;;;10.10;99.90;;;;;;5044628;28;20194;-67
2021/09/29 02:28:46;;;;;;;7.30;5.70;;;10.00;99.90;;;;;;5043264;28;20199;-70
2021/09/29 02:31:12;;;;;;;6.90;6.20;;;10.00;99.90;;;;;;5045969;28;20251;-64
2021/09/29 02:33:37;;;;;;;8.97;6.47;;;10.00;99.90;;;;;;5045569;28;20205;-67
2021/09/29 02:36:03;;;;;;;6.80;6.00;;;10.10;99.90;;;;;;5047945;28;20190;-68
2021/09/29 02:38:29;;;;;;;8.83;7.40;;;10.10;99.90;;;;;;5047289;28;20174;-70
2021/09/29 02:40:54;;;;;;;7.77;7.07;;;10.00;99.90;;;;;;5046868;28;20676;-69
2021/09/29 02:43:20;;;;;;;9.70;7.50;;;10.00;99.90;;;;;;5046378;28;20616;-68
2021/09/29 02:45:46;;;;;;;9.00;7.67;;;10.00;99.90;;;;;;5047181;28;20730;-67
2021/09/29 02:48:12;;;;;;;8.90;7.10;;;10.00;99.90;;;;;;5047196;28;20218;-67
2021/09/29 02:50:39;;;;;;;9.90;8.13;;;10.00;99.90;;;;;;5046821;28;20284;-68
2021/09/29 02:53:04;;;;;;;9.50;8.37;;;10.00;99.90;;;;;;5046735;28;20206;-66
2021/09/29 02:55:30;;;;;;;10.37;8.13;;;9.90;99.90;;;;;;5047023;28;20611;-67
2021/09/29 02:57:55;;;;;;;8.00;7.20;;;9.90;99.90;;;;;;5047107;28;20178;-68
2021/09/29 03:00:21;;;;;;;9.83;8.83;;;9.90;99.90;;;;;;5047340;28;21298;-65
2021/09/29 03:02:47;;;;;;;10.07;8.37;;;9.90;99.90;;;;;;5046124;28;20178;-65
2021/09/29 03:05:12;;;;;;;9.70;8.03;;;9.80;99.90;;;;;;5046855;28;20190;-69
2021/09/29 03:07:38;;;;;;;8.77;7.87;;;9.80;99.90;;;;;;5045395;28;20186;-68
2021/09/29 03:10:05;;;;;;;10.27;8.30;;;9.70;99.90;;;;;;5046693;28;20185;-65
2021/09/29 03:12:30;;;;;;;10.60;8.93;;;9.70;99.90;;;;;;5045821;28;20297;-66
2021/09/29 03:14:56;;;;;;;11.43;9.27;;;9.70;99.90;;;;;;5046808;28;20265;-65
2021/09/29 03:17:22;;;;;;;12.37;9.20;;;9.70;99.90;;;;;;5046802;28;20545;-67
2021/09/29 03:19:47;;;;;;;12.07;9.47;;;9.60;99.90;;;;;;5047062;28;20181;-67
2021/09/29 03:22:13;;;;;;;10.70;9.53;;;9.60;99.90;;;;;;5044872;28;20202;-68
2021/09/29 03:24:39;;;;;;;13.13;9.53;;;9.60;99.90;;;;;;5046694;28;20190;-68
2021/09/29 03:27:05;;;;;;;12.17;9.50;;;9.60;99.90;;;;;;5046968;28;20193;-67
2021/09/29 03:29:31;;;;;;;11.03;9.80;;;9.60;99.90;;;;;;5046479;28;20622;-68
2021/09/29 03:31:57;;;;;;;11.13;8.97;;;9.60;99.90;;;;;;5046005;28;20260;-67
2021/09/29 03:34:22;;;;;;;11.80;10.03;;;9.60;99.90;;;;;;5046183;28;20178;-67
2021/09/29 03:36:48;;;;;;;10.43;9.33;;;9.60;99.90;;;;;;5046576;28;20232;-67
2021/09/29 03:39:13;;;;;;;11.53;9.83;;;9.70;99.90;;;;;;5046036;28;20209;-67
2021/09/29 03:41:39;;;;;;;15.13;10.73;;;9.70;99.90;;;;;;5045258;28;20289;-68
2021/09/29 03:44:05;;;;;;;13.33;11.07;;;9.70;99.90;;;;;;5046408;28;20264;-68
2021/09/29 03:46:31;;;;;;;11.50;9.57;;;9.70;99.90;;;;;;5046410;28;20213;-64
2021/09/29 03:48:57;;;;;;;11.87;10.57;;;9.70;99.90;;;;;;5045635;28;20210;-68
2021/09/29 03:51:22;;;;;;;15.53;10.80;;;9.80;99.90;;;;;;5045834;28;20252;-65
2021/09/29 03:53:48;;;;;;;16.20;11.90;;;9.70;99.90;;;;;;5045136;28;20182;-68
2021/09/29 03:56:14;;;;;;;14.90;12.67;;;9.70;99.90;;;;;;5045973;28;20193;-69
2021/09/29 03:58:39;;;;;;;14.93;11.97;;;9.70;99.90;;;;;;5045694;28;20264;-67
2021/09/29 04:01:05;;;;;;;15.70;12.60;;;9.70;99.90;;;;;;5046267;28;20292;-67
2021/09/29 04:03:30;;;;;;;16.70;13.23;;;9.70;99.90;;;;;;5045198;28;20237;-69
2021/09/29 04:05:56;;;;;;;18.60;13.23;;;9.70;99.90;;;;;;5045863;28;20552;-66
2021/09/29 04:08:22;;;;;;;19.50;13.10;;;9.70;99.90;;;;;;5045773;28;20352;-64
2021/09/29 04:10:47;;;;;;;15.93;13.33;;;9.70;99.90;;;;;;5045963;28;20202;-68
2021/09/29 04:13:13;;;;;;;18.37;14.27;;;9.70;99.90;;;;;;5044997;28;20185;-65
2021/09/29 04:15:39;;;;;;;15.10;12.10;;;9.70;99.90;;;;;;5045640;28;20249;-67
2021/09/29 04:18:05;;;;;;;14.83;12.10;;;9.80;99.90;;;;;;5045751;28;20177;-67
2021/09/29 04:20:31;;;;;;;16.03;12.63;;;9.80;99.90;;;;;;5045347;28;20186;-68
2021/09/29 04:22:57;;;;;;;16.50;12.43;;;10.00;99.90;;;;;;5043764;28;20183;-66
2021/09/29 04:25:23;;;;;;;15.90;12.70;;;9.90;99.90;;;;;;5045587;28;20182;-66
2021/09/29 04:27:49;;;;;;;15.97;13.57;;;9.90;99.90;;;;;;5045144;28;20265;-68
2021/09/29 04:30:15;;;;;;;17.03;13.37;;;9.80;99.90;;;;;;5045535;28;20182;-66
2021/09/29 04:32:44;;;;;;;17.40;13.53;;;9.70;99.90;;;;;;5044547;28;20232;-67
2021/09/29 04:35:11;;;;;;;18.93;14.53;;;9.80;99.90;;;;;;5045286;28;20185;-69
2021/09/29 04:37:37;;;;;;;23.90;15.30;;;9.80;99.90;;;;;;5045332;28;20884;-68
2021/09/29 04:40:04;;;;;;;18.77;14.30;;;9.70;99.90;;;;;;5045123;28;20575;-66
2021/09/29 04:42:30;;;;;;;16.60;13.93;;;9.70;99.90;;;;;;5044255;28;20321;-70
2021/09/29 04:44:56;;;;;;;17.70;13.90;;;9.80;99.90;;;;;;5045134;28;20678;-65
2021/09/29 04:47:21;;;;;;;17.77;15.00;;;9.80;99.90;;;;;;5044990;28;20692;-65
2021/09/29 04:49:47;;;;;;;16.87;13.57;;;9.70;99.90;;;;;;5044781;28;20210;-68
2021/09/29 04:52:13;;;;;;;16.83;13.73;;;9.80;99.90;;;;;;5044035;28;20198;-66
2021/09/29 04:54:41;;;;;;;19.00;15.13;;;9.70;99.90;;;;;;5044232;28;20261;-67
2021/09/29 04:57:09;;;;;;;19.07;15.13;;;9.60;99.90;;;;;;5045009;28;20171;-65
2021/09/29 04:59:36;;;;;;;20.40;15.63;;;9.60;99.90;;;;;;5044591;28;20181;-67
2021/09/29 05:02:04;;;;;;;18.73;15.50;;;9.60;99.90;;;;;;5043959;28;20233;-68
2021/09/29 05:04:30;;;;;;;21.77;16.67;;;9.60;99.90;;;;;;5045087;28;20634;-67
2021/09/29 05:06:57;;;;;;;22.17;16.93;;;9.60;99.90;;;;;;5043164;28;20281;-64
2021/09/29 05:09:23;;;;;;;21.63;15.93;;;9.60;99.90;;;;;;5044125;28;20213;-66
2021/09/29 05:11:59;;;;;;;22.30;17.10;;;9.60;99.90;;;;;;5043962;28;20194;-68
2021/09/29 05:14:25;;;;;;;23.53;17.03;;;9.60;99.90;;;;;;5044206;28;20537;-68
2021/09/29 05:16:50;;;;;;;18.33;15.93;;;9.70;99.90;;;;;;5044393;28;20178;-65
2021/09/29 05:19:16;;;;;;;21.23;16.70;;;9.80;99.90;;;;;;5044567;28;20726;-68
2021/09/29 05:21:41;;;;;;;22.40;16.43;;;9.80;99.90;;;;;;5043732;28;20750;-68
2021/09/29 05:24:07;;;;;;;20.43;16.07;;;9.90;99.90;;;;;;5042332;28;20186;-66
2021/09/29 05:26:33;;;;;;;19.50;16.17;;;10.10;99.90;;;;;;5044176;28;20294;-69
2021/09/29 05:29:01;;;;;;;19.40;16.00;;;10.00;99.90;;;;;;5044478;28;20288;-66
2021/09/29 05:31:27;;;;;;;23.03;17.40;;;10.10;99.90;;;;;;5043126;28;20264;-69
2021/09/29 05:33:52;;;;;;;26.77;17.50;;;10.00;99.90;;;;;;5043988;28;20194;-67
2021/09/29 05:36:19;;;;;;;25.70;16.87;;;10.00;99.90;;;;;;5042328;28;20241;-66
2021/09/29 05:38:45;;;;;;;23.37;17.40;;;10.10;99.90;;;;;;5044490;28;20189;-68
2021/09/29 05:41:11;;;;;;;21.73;17.57;;;10.20;99.90;;;;;;5043766;28;20206;-67
2021/09/29 05:43:37;;;;;;;24.07;17.27;;;10.20;99.90;;;;;;5042896;28;20721;-67
2021/09/29 05:46:03;;;;;;;24.03;17.73;;;10.20;99.90;;;;;;5043792;28;20225;-66
2021/09/29 05:48:29;;;;;;;23.03;17.57;;;10.30;99.90;;;;;;5043162;28;20241;-69
2021/09/29 05:50:55;;;;;;;23.27;17.63;;;10.50;99.90;;;;;;5043175;28;20703;-68
2021/09/29 05:53:21;;;;;;;21.63;16.73;;;10.50;99.90;;;;;;5043885;28;20182;-66
2021/09/29 05:55:47;;;;;;;24.13;18.25;;;10.50;99.90;;;;;;5043917;28;20182;-70
2021/09/29 05:58:13;;;;;;;18.07;15.63;;;10.50;99.90;;;;;;5044449;28;20266;-67
2021/09/29 06:00:39;;;;;;;23.43;16.40;;;10.60;99.90;;;;;;5042178;28;20226;-66
2021/09/29 06:03:04;;;;;;;20.77;16.88;;;10.60;99.90;;;;;;5043548;28;20634;-69
2021/09/29 06:05:30;;;;;;;24.37;16.27;;;10.70;99.90;;;;;;5047253;28;20182;-66
2021/09/29 06:07:55;;;;;;;23.97;17.23;;;10.70;99.90;;;;;;5048227;28;20186;-68
2021/09/29 06:10:21;;;;;;;22.63;16.83;;;10.80;99.90;;;;;;5047147;28;20178;-65
2021/09/29 06:12:47;;;;;;;19.50;15.83;;;10.90;99.90;;;;;;5047577;28;20597;-66
2021/09/29 06:15:33;;;;;;;21.80;15.23;;;11.00;99.90;;;;;;5047600;28;20193;-64
2021/09/29 06:18:02;;;;;;;21.02;17.05;;;11.00;99.90;;;;;;5040606;28;20277;-68
2021/09/29 06:20:31;;;;;;;22.05;15.18;;;11.10;99.90;;;;;;5045010;28;20204;-67
2021/09/29 06:22:58;;;;;;;20.50;15.85;;;11.20;99.90;;;;;;5044898;28;20637;-68
2021/09/29 06:25:24;;;;;;;23.10;16.58;;;11.20;99.90;;;;;;5046995;28;20535;-66
2021/09/29 06:27:50;;;;;;;20.70;15.52;;;11.30;99.90;;;;;;5046837;28;20182;-68
2021/09/29 06:30:16;;;;;;;19.08;14.85;;;11.40;99.90;;;;;;5046056;28;20178;-66
2021/09/29 06:32:41;;;;;;;19.60;15.15;;;11.40;99.90;;;;;;5046487;28;20529;-68
2021/09/29 06:35:07;;;;;;;18.65;14.77;;;11.50;99.90;;;;;;5046595;28;20186;-67
2021/09/29 06:37:39;;;;;;;18.35;14.80;;;11.70;99.90;;;;;;5045801;28;20197;-67
2021/09/29 06:40:12;;;;;;;20.00;15.52;;;11.90;99.90;;;;;;5046116;28;20224;-69
2021/09/29 06:42:38;;;;;;;18.33;15.40;;;11.90;99.90;;;;;;5045862;28;20462;-66
2021/09/29 06:45:06;;;;;;;18.48;14.90;;;12.00;99.90;;;;;;5046494;28;20201;-66
2021/09/29 06:47:32;;;;;;;19.60;15.52;;;12.00;99.90;;;;;;5046543;28;20189;-70
2021/09/29 06:49:58;;;;;;;20.02;15.82;;;12.00;99.90;;;;;;5045920;28;20210;-66
2021/09/29 06:52:24;;;;;;;18.35;15.82;;;12.00;99.90;;;;;;5044574;28;20684;-68
2021/09/29 06:54:49;;;;;;;19.50;16.27;;;11.90;99.90;;;;;;5046123;28;20190;-69
2021/09/29 06:57:15;;;;;;;21.80;16.90;;;11.90;99.90;;;;;;5046494;28;20485;-68
2021/09/29 06:59:40;;;;;;;19.08;16.15;;;11.90;99.90;;;;;;5045640;28;20185;-68
2021/09/29 07:02:06;;;;;;;21.45;16.48;;;12.00;99.90;;;;;;5045754;28;20206;-67
2021/09/29 07:04:32;;;;;;;18.98;15.65;;;12.00;99.90;;;;;;5045902;28;20689;-67
2021/09/29 07:06:58;;;;;;;21.95;16.83;;;12.00;99.90;;;;;;5044193;28;20707;-68
2021/09/29 07:09:23;;;;;;;22.23;16.85;;;11.90;99.90;;;;;;5045970;28;20288;-69
2021/09/29 07:11:49;;;;;;;20.13;16.42;;;11.90;99.90;;;;;;5045236;28;20213;-65
2021/09/29 07:14:15;;;;;;;21.55;15.80;;;12.00;99.90;;;;;;5045812;28;20228;-68
2021/09/29 07:16:41;;;;;;;23.92;16.67;;;12.00;99.90;;;;;;5045196;28;20182;-67
2021/09/29 07:19:06;;;;;;;21.50;16.10;;;12.10;99.90;;;;;;5045909;28;20190;-69
2021/09/29 07:21:32;;;;;;;19.65;16.17;;;12.10;99.90;;;;;;5045035;28;20385;-68
2021/09/29 07:23:58;;;;;;;19.88;16.23;;;12.10;99.90;;;;;;5046004;28;20225;-67
2021/09/29 07:26:25;;;;;;;20.10;16.25;;;12.10;99.90;;;;;;5045410;28;20464;-69
2021/09/29 07:28:50;;;;;;;21.38;15.98;;;12.10;99.90;;;;;;5045651;28;20293;-68
2021/09/29 07:31:17;;;;;;;21.35;16.13;;;12.10;99.90;;;;;;5045204;28;20280;-67
2021/09/29 07:33:43;;;;;;;21.70;16.05;;;12.10;99.90;;;;;;5045284;28;20193;-67
2021/09/29 07:36:08;;;;;;;21.48;16.42;;;12.10;99.90;;;;;;5045692;28;20190;-68
2021/09/29 07:38:35;;;;;;;21.73;16.23;;;12.10;99.90;;;;;;5045591;28;20186;-68
2021/09/29 07:41:00;;;;;;;23.85;16.55;;;12.10;99.90;;;;;;5045011;28;20325;-69
2021/09/29 07:43:26;;;;;;;22.80;16.65;;;12.10;99.90;;;;;;5044680;28;20257;-67
2021/09/29 07:45:52;;;;;;;22.55;15.85;;;12.20;99.90;;;;;;5045333;28;20208;-66
2021/09/29 07:48:18;;;;;;;21.50;17.20;;;12.10;99.90;;;;;;5043806;28;20551;-70
2021/09/29 07:50:43;;;;;;;24.10;15.63;;;12.10;99.90;;;;;;5045155;28;20198;-70
2021/09/29 07:53:09;;;;;;;21.13;16.05;;;12.10;99.90;;;;;;5043304;28;20224;-68
2021/09/29 07:55:35;;;;;;;21.80;17.00;;;12.20;99.90;;;;;;5045012;28;20178;-69
2021/09/29 07:58:01;;;;;;;21.23;16.70;;;12.20;99.90;;;;;;5045132;28;20197;-66
2021/09/29 08:00:26;;;;;;;21.67;16.55;;;12.30;99.90;;;;;;5044878;28;20240;-69
2021/09/29 08:02:52;;;;;;;22.15;16.40;;;12.30;99.90;;;;;;5044959;28;20182;-67
2021/09/29 08:05:20;;;;;;;22.48;17.13;;;12.40;99.90;;;;;;5045280;28;20733;-67
2021/09/29 08:07:50;;;;;;;20.50;15.65;;;12.40;99.90;;;;;;5045374;28;20186;-67
2021/09/29 08:10:17;;;;;;;22.13;15.68;;;12.60;99.90;;;;;;5044768;28;20186;-67
2021/09/29 08:12:42;;;;;;;21.65;16.63;;;12.90;99.90;;;;;;5044728;28;20711;-68
2021/09/29 08:15:13;;;;;;;27.15;17.20;;;13.10;99.90;;;;;;5045104;28;20187;-69
2021/09/29 08:17:42;;;;;;;20.98;16.38;;;13.30;99.90;;;;;;5043828;28;20232;-66
2021/09/29 08:20:14;;;;;;;23.42;15.90;;;13.50;99.90;;;;;;5045186;28;20229;-69
2021/09/29 08:22:41;;;;;;;25.67;17.27;;;13.60;99.90;;;;;;5043356;28;20190;-69
2021/09/29 08:25:20;;;;;;;23.23;15.82;;;13.50;99.90;;;;;;5045438;28;20715;-65
2021/09/29 08:27:55;;;;;;;19.38;15.35;;;13.60;99.90;;;;;;5034524;28;20204;-66
2021/09/29 08:33:13;;;;;;;25.52;16.13;;;13.80;99.90;;;;;;5044183;28;20178;-67
2021/09/29 08:36:32;;;;;;;18.42;14.75;;;14.00;99.90;;;;;;5044190;28;20174;-67
2021/09/29 08:38:37;;;;;;;19.77;14.75;;;14.10;99.90;;;;;;5047612;28;20553;-67
2021/09/29 08:43:55;;;;;;;18.25;15.27;;;14.30;99.90;;;;;;5043950;28;20201;-66
2021/09/29 08:46:30;;;;;;;20.95;15.18;;;14.60;99.90;;;;;;5042896;28;20182;-66
2021/09/29 08:49:04;;;;;;;18.27;14.23;;;14.60;99.90;;;;;;5043081;28;20214;-69
2021/09/29 09:16:32;;;;;;;17.23;13.82;;;15.10;99.90;;;;;;5043687;28;20186;-67
2021/09/29 09:19:11;;;;;;;15.75;12.93;;;15.40;99.90;;;;;;5044719;28;20185;-68
2021/09/29 09:21:59;;;;;;;16.58;12.88;;;15.70;99.90;;;;;;5043412;28;20202;-69
2021/09/29 09:24:28;;;;;;;17.33;12.15;;;16.00;99.90;;;;;;5044980;28;20218;-68
2021/09/29 09:27:00;;;;;;;16.48;12.73;;;16.10;99.90;;;;;;5043809;28;20286;-68
2021/09/29 09:29:26;;;;;;;13.65;11.00;;;16.20;99.90;;;;;;5044099;28;20210;-67
2021/09/29 09:31:54;;;;;;;12.02;10.55;;;16.50;99.90;;;;;;5043000;28;20693;-68
2021/09/29 09:34:19;;;;;;;13.50;11.20;;;16.70;99.90;;;;;;5044726;28;20649;-65
2021/09/29 09:36:50;;;;;;;17.42;11.13;;;16.80;99.90;;;;;;5043830;28;20205;-67
2021/09/29 09:39:18;;;;;;;14.20;11.05;;;16.80;99.90;;;;;;5042595;28;20277;-70
2021/09/29 09:41:49;;;;;;;16.23;10.30;;;16.80;99.90;;;;;;5042806;28;20208;-69
2021/09/29 09:44:22;;;;;;;9.88;8.80;;;16.90;99.90;;;;;;5044170;28;20190;-70
2021/09/29 09:47:09;;;;;;;12.95;8.75;;;17.10;99.90;;;;;;5043772;28;20259;-69
2021/09/29 09:49:56;;;;;;;11.18;9.88;;;17.30;99.90;;;;;;5043421;28;20328;-66
2021/09/29 09:52:29;;;;;;;11.02;9.38;;;17.30;99.90;;;;;;5042940;28;20323;-68
2021/09/29 09:55:04;;;;;;;12.50;9.30;;;17.20;99.90;;;;;;5044059;28;20178;-68
2021/09/29 09:57:30;;;;;;;10.50;7.72;;;17.10;99.90;;;;;;5043659;28;20661;-68
2021/09/29 09:59:56;;;;;;;8.75;7.85;;;17.00;99.90;;;;;;5043789;28;20268;-67
2021/09/29 10:02:22;;;;;;;8.90;6.80;;;17.20;99.90;;;;;;5043555;28;20647;-68
2021/09/29 10:04:48;;;;;;;10.20;7.10;;;17.40;99.90;;;;;;5043932;28;20182;-69
2021/09/29 10:07:15;;;;;;;8.13;7.30;;;17.50;99.90;;;;;;5043780;28;20198;-66
2021/09/29 10:12:21;;;;;;;9.35;6.90;;;17.70;99.90;;;;;;5043315;28;20343;-68
2021/09/29 10:23:07;;;;;;;3.80;3.05;;;17.80;99.90;;;;;;5043077;28;20185;-65
2021/09/29 10:28:31;;;;;;;5.35;3.00;;;18.10;99.90;;;;;;5042257;28;20206;-65
2021/09/29 10:33:27;;;;;;;3.88;3.50;;;18.50;99.90;;;;;;5043432;28;20210;-64
2021/09/29 10:41:22;;;;;;;5.85;3.10;;;18.60;99.90;;;;;;5042947;28;20206;-69
2021/09/29 10:44:07;;;;;;;3.58;2.25;;;18.70;99.90;;;;;;5042042;28;20194;-66
2021/09/29 10:49:36;;;;;;;2.67;1.80;;;18.70;99.90;;;;;;5043355;28;20210;-65
2021/09/29 11:33:41;;;;;;;0.98;0.60;;;18.90;99.90;;;;;;5046510;28;20223;-67
2021/09/29 11:36:25;;;;;;;2.10;0.60;;;18.90;99.90;;;;;;5044376;28;20239;-68
2021/09/29 11:39:21;;;;;;;0.47;0.40;;;19.00;99.90;;;;;;5047177;28;20178;-68
2021/09/29 12:10:17;;;;;;;1.95;0.70;;;19.50;99.90;;;;;;5045069;28;20515;-68
2021/09/29 12:12:28;;;;;;;1.83;0.60;;;20.00;99.90;;;;;;5046370;28;20589;-67
2021/09/29 12:15:03;;;;;;;1.55;0.63;;;20.40;99.90;;;;;;5045135;28;20257;-67
2021/09/29 12:17:39;;;;;;;1.83;0.70;;;20.40;99.90;;;;;;5044942;28;20185;-67
2021/09/29 12:20:17;;;;;;;3.13;0.68;;;20.20;99.90;;;;;;5045206;28;20272;-66
2021/09/29 12:22:57;;;;;;;2.63;0.88;;;19.90;99.90;;;;;;5044487;28;20178;-69
2021/09/29 12:26:05;;;;;;;0.88;0.63;;;19.80;99.90;;;;;;5045478;28;20185;-66
2021/09/29 12:34:16;;;;;;;1.00;0.60;;;20.30;99.90;;;;;;5044385;28;20178;-65
2021/09/29 12:36:32;;;;;;;4.03;0.63;;;20.10;99.90;;;;;;5044916;28;20186;-68
2021/09/29 12:38:59;;;;;;;1.08;0.50;;;19.80;99.90;;;;;;5044985;28;20178;-64
2021/09/29 12:41:28;;;;;;;1.63;0.80;;;19.50;99.90;;;;;;5044062;28;20202;-67
2021/09/29 12:44:05;;;;;;;1.90;0.75;;;19.40;99.90;;;;;;5044848;28;20240;-66
2021/09/29 12:46:31;;;;;;;3.03;0.88;;;19.10;99.90;;;;;;5044222;28;20584;-67
2021/09/29 12:48:57;;;;;;;1.98;0.60;;;19.00;99.90;;;;;;5044641;28;20210;-65
2021/09/29 12:51:24;;;;;;;3.50;0.60;;;19.10;99.90;;;;;;5043507;28;20684;-68
2021/09/29 12:53:53;;;;;;;1.42;0.57;;;18.90;99.90;;;;;;5044724;28;20248;-65
2021/09/29 12:56:19;;;;;;;1.58;0.60;;;18.90;99.90;;;;;;5044311;28;20178;-70
2021/09/29 12:58:45;;;;;;;2.00;0.70;;;18.70;99.90;;;;;;5044317;28;20206;-67
2021/09/29 13:01:11;;;;;;;1.42;0.77;;;18.60;99.90;;;;;;5043549;28;20268;-67
2021/09/29 13:03:37;;;;;;;1.25;0.80;;;18.40;99.90;;;;;;5043507;28;20178;-69
2021/09/29 13:06:03;;;;;;;2.85;0.82;;;18.30;99.90;;;;;;5044126;28;20194;-66
2021/09/29 13:08:29;;;;;;;2.13;0.73;;;18.40;99.90;;;;;;5045154;28;20734;-69
2021/09/29 13:10:56;;;;;;;2.42;0.70;;;18.40;99.90;;;;;;5044040;28;20202;-66
2021/09/29 13:13:22;;;;;;;1.70;0.88;;;18.50;99.90;;;;;;5044185;28;20566;-69
2021/09/29 13:15:51;;;;;;;2.33;0.70;;;18.60;99.90;;;;;;5043801;28;20178;-69
2021/09/29 13:20:58;;;;;;;2.78;0.85;;;18.60;99.90;;;;;;5043896;28;20198;-66
2021/09/29 13:26:02;;;;;;;3.97;0.88;;;18.40;99.90;;;;;;5044329;28;20179;-68
2021/09/29 13:36:42;;;;;;;2.70;1.05;;;18.40;99.90;;;;;;5043750;28;20184;-68
2021/09/29 13:39:16;;;;;;;2.30;0.80;;;18.50;99.90;;;;;;5044689;28;20178;-67
2021/09/29 13:41:44;;;;;;;0.85;0.45;;;18.50;99.90;;;;;;5043001;28;20208;-67
2021/09/29 13:44:11;;;;;;;0.80;0.52;;;18.40;99.90;;;;;;5044294;28;20189;-66
2021/09/29 13:46:38;;;;;;;2.67;0.70;;;18.40;99.90;;;;;;5043846;28;20201;-69
2021/09/29 13:49:06;;;;;;;2.20;0.80;;;18.50;99.90;;;;;;5044101;28;20222;-66
2021/09/29 13:51:33;;;;;;;1.73;0.77;;;18.50;99.90;;;;;;5043002;28;20198;-67
2021/09/29 13:54:06;;;;;;;2.25;0.68;;;18.60;99.90;;;;;;5044334;28;20182;-68
2021/09/29 13:56:43;;;;;;;1.00;0.55;;;18.70;99.90;;;;;;5043795;28;21063;-66
2021/09/29 14:31:46;;;;;;;1.80;0.98;;;17.70;99.90;;;;;;5046124;28;20197;-65
2021/09/29 14:34:12;;;;;;;1.25;0.65;;;17.60;99.90;;;;;;5046440;28;20705;-67
2021/09/29 14:36:37;;;;;;;0.73;0.60;;;17.50;99.90;;;;;;5047491;28;20183;-66
2021/09/29 14:39:04;;;;;;;1.63;0.52;;;17.40;99.90;;;;;;5047778;28;20323;-65
2021/09/29 14:41:30;;;;;;;2.22;0.77;;;17.10;99.90;;;;;;5046532;28;20205;-65
2021/09/29 14:43:55;;;;;;;0.85;0.50;;;16.60;99.90;;;;;;5047484;28;20175;-67
2021/09/29 14:46:22;;;;;;;1.45;0.40;;;16.20;99.90;;;;;;5046928;28;20194;-66
2021/09/29 14:48:47;;;;;;;0.43;0.40;;;16.00;99.90;;;;;;5047706;28;20684;-68
2021/09/29 14:51:13;;;;;;;0.70;0.70;;;15.90;99.90;;;;;;5046801;28;20284;-68
2021/09/29 14:53:40;;;;;;;1.27;0.70;;;15.80;99.90;;;;;;5047041;28;20182;-68
2021/09/29 14:56:08;;;;;;;0.60;0.60;;;15.60;99.90;;;;;;5046701;28;20710;-66
2021/09/29 14:58:35;;;;;;;1.75;0.90;;;15.40;99.90;;;;;;5047435;28;20570;-68
2021/09/29 15:01:00;;;;;;;1.50;0.50;;;15.20;99.90;;;;;;5046803;28;20198;-68
2021/09/29 15:03:26;;;;;;;1.00;0.70;;;15.10;99.90;;;;;;5046445;28;20184;-66
2021/09/29 15:05:53;;;;;;;2.38;0.60;;;14.80;99.90;;;;;;5047147;28;20387;-67
2021/09/29 15:08:19;;;;;;;3.78;0.70;;;14.70;99.90;;;;;;5047057;28;20188;-65
2021/09/29 15:10:45;;;;;;;0.60;0.50;;;14.70;99.90;;;;;;5046311;28;20463;-66
2021/09/29 15:13:14;;;;;;;0.47;0.40;;;14.60;99.90;;;;;;5046472;28;20190;-66
2021/09/29 15:18:32;;;;;;;0.50;0.40;;;14.50;99.90;;;;;;5047273;28;20440;-66
2021/09/29 15:21:14;;;;;;;0.40;0.40;;;14.30;99.90;;;;;;5044909;28;20219;-69
2021/09/29 15:31:23;;;;;;;0.45;0.45;;;13.70;99.90;;;;;;5045906;28;20677;-66
2021/09/29 15:47:45;;;;;;;0.60;0.60;;;13.50;99.90;;;;;;5034993;28;20205;-65
2021/09/29 15:50:22;;;;;;;0.73;0.50;;;13.40;99.90;;;;;;5043906;28;20263;-67
2021/09/29 15:55:27;;;;;;;0.47;0.47;;;13.40;99.90;;;;;;5045899;28;20186;-66
2021/09/29 16:03:19;;;;;;;1.00;0.93;;;13.30;99.90;;;;;;5044833;28;20193;-65
2021/09/29 16:05:52;;;;;;;0.75;0.75;;;13.20;99.90;;;;;;5045098;28;20440;-64
2021/09/29 16:14:06;;;;;;;1.95;1.60;;;13.10;99.90;;;;;;5081458;28;20428;-69
2021/09/29 16:19:14;;;;;;;1.88;1.02;;;13.20;99.90;;;;;;5045430;28;20634;-65
2021/09/29 16:32:41;;;;;;;0.80;0.80;;;13.10;99.90;;;;;;5044094;28;20308;-68